sensor_id;sensor_type;location;lat;lon;timestamp;P1;durP1;ratioP1;P2;durP2;ratioP2
54921;SDS011;40824;45.116;21.296;2023-07-02T00:01:19;8.25;;;5.20;;
54921;SDS011;40824;45.116;21.296;2023-07-02T00:03:50;9.60;;;5.22;;
54921;SDS011;40824;45.116;21.296;2023-07-02T00:06:16;7.32;;;5.40;;
54921;SDS011;40824;45.116;21.296;2023-07-02T00:08:42;8.88;;;4.93;;
54921;SDS011;40824;45.116;21.296;2023-07-02T00:11:08;6.93;;;5.13;;
54921;SDS011;40824;45.116;21.296;2023-07-02T00:13:37;9.07;;;5.75;;
54921;SDS011;40824;45.116;21.296;2023-07-02T00:16:04;9.63;;;5.78;;
54921;SDS011;40824;45.116;21.296;2023-07-02T00:18:33;7.32;;;5.90;;
54921;SDS011;40824;45.116;21.296;2023-07-02T00:21:02;9.32;;;5.30;;
54921;SDS011;40824;45.116;21.296;2023-07-02T00:23:29;7.28;;;5.55;;
54921;SDS011;40824;45.116;21.296;2023-07-02T00:25:56;12.05;;;6.20;;
54921;SDS011;40824;45.116;21.296;2023-07-02T00:28:22;8.40;;;5.38;;
54921;SDS011;40824;45.116;21.296;2023-07-02T00:30:48;9.20;;;5.97;;
54921;SDS011;40824;45.116;21.296;2023-07-02T00:33:15;8.27;;;6.07;;
54921;SDS011;40824;45.116;21.296;2023-07-02T00:35:41;8.88;;;6.78;;
54921;SDS011;40824;45.116;21.296;2023-07-02T00:38:07;9.18;;;6.60;;
54921;SDS011;40824;45.116;21.296;2023-07-02T00:40:33;10.32;;;6.13;;
54921;SDS011;40824;45.116;21.296;2023-07-02T00:42:59;9.73;;;5.80;;
54921;SDS011;40824;45.116;21.296;2023-07-02T00:45:25;9.38;;;6.72;;
54921;SDS011;40824;45.116;21.296;2023-07-02T00:47:53;12.52;;;6.35;;
54921;SDS011;40824;45.116;21.296;2023-07-02T00:50:21;9.98;;;5.90;;
54921;SDS011;40824;45.116;21.296;2023-07-02T00:52:47;9.95;;;6.25;;
54921;SDS011;40824;45.116;21.296;2023-07-02T00:55:13;11.52;;;7.00;;
54921;SDS011;40824;45.116;21.296;2023-07-02T00:57:39;9.52;;;6.57;;
54921;SDS011;40824;45.116;21.296;2023-07-02T01:00:11;10.30;;;6.70;;
54921;SDS011;40824;45.116;21.296;2023-07-02T01:02:38;10.57;;;6.30;;
54921;SDS011;40824;45.116;21.296;2023-07-02T01:05:09;9.85;;;6.95;;
54921;SDS011;40824;45.116;21.296;2023-07-02T01:07:35;10.10;;;6.55;;
54921;SDS011;40824;45.116;21.296;2023-07-02T01:10:01;9.30;;;6.43;;
54921;SDS011;40824;45.116;21.296;2023-07-02T01:12:29;13.32;;;6.90;;
54921;SDS011;40824;45.116;21.296;2023-07-02T01:14:56;8.27;;;6.15;;
54921;SDS011;40824;45.116;21.296;2023-07-02T01:17:24;8.85;;;6.40;;
54921;SDS011;40824;45.116;21.296;2023-07-02T01:19:53;9.75;;;6.95;;
54921;SDS011;40824;45.116;21.296;2023-07-02T01:22:23;8.82;;;6.50;;
54921;SDS011;40824;45.116;21.296;2023-07-02T01:24:50;9.43;;;6.50;;
54921;SDS011;40824;45.116;21.296;2023-07-02T01:27:16;9.93;;;7.40;;
54921;SDS011;40824;45.116;21.296;2023-07-02T01:29:43;8.98;;;7.05;;
54921;SDS011;40824;45.116;21.296;2023-07-02T01:32:12;10.50;;;7.30;;
54921;SDS011;40824;45.116;21.296;2023-07-02T01:34:38;10.00;;;7.20;;
54921;SDS011;40824;45.116;21.296;2023-07-02T01:37:13;10.23;;;7.80;;
54921;SDS011;40824;45.116;21.296;2023-07-02T01:39:39;9.65;;;7.28;;
54921;SDS011;40824;45.116;21.296;2023-07-02T01:42:09;15.77;;;8.05;;
54921;SDS011;40824;45.116;21.296;2023-07-02T01:44:43;10.93;;;7.13;;
54921;SDS011;40824;45.116;21.296;2023-07-02T01:47:12;10.60;;;7.15;;
54921;SDS011;40824;45.116;21.296;2023-07-02T01:49:41;11.07;;;7.50;;
54921;SDS011;40824;45.116;21.296;2023-07-02T01:52:07;10.27;;;7.55;;
54921;SDS011;40824;45.116;21.296;2023-07-02T01:54:34;10.23;;;7.20;;
54921;SDS011;40824;45.116;21.296;2023-07-02T01:57:05;11.70;;;8.40;;
54921;SDS011;40824;45.116;21.296;2023-07-02T01:59:31;12.60;;;8.20;;
54921;SDS011;40824;45.116;21.296;2023-07-02T02:01:57;9.82;;;7.45;;
54921;SDS011;40824;45.116;21.296;2023-07-02T02:04:25;9.60;;;7.03;;
54921;SDS011;40824;45.116;21.296;2023-07-02T02:06:51;10.00;;;6.95;;
54921;SDS011;40824;45.116;21.296;2023-07-02T02:09:18;10.90;;;7.07;;
54921;SDS011;40824;45.116;21.296;2023-07-02T02:11:46;12.93;;;7.25;;
54921;SDS011;40824;45.116;21.296;2023-07-02T02:14:12;11.10;;;7.18;;
54921;SDS011;40824;45.116;21.296;2023-07-02T02:16:38;11.68;;;7.35;;
54921;SDS011;40824;45.116;21.296;2023-07-02T02:19:04;10.50;;;7.43;;
54921;SDS011;40824;45.116;21.296;2023-07-02T02:21:31;9.18;;;6.70;;
54921;SDS011;40824;45.116;21.296;2023-07-02T02:23:59;9.75;;;7.20;;
54921;SDS011;40824;45.116;21.296;2023-07-02T02:26:25;11.05;;;6.90;;
54921;SDS011;40824;45.116;21.296;2023-07-02T02:28:52;11.48;;;7.72;;
54921;SDS011;40824;45.116;21.296;2023-07-02T02:31:18;15.20;;;8.75;;
54921;SDS011;40824;45.116;21.296;2023-07-02T02:33:44;10.40;;;7.38;;
54921;SDS011;40824;45.116;21.296;2023-07-02T02:36:10;12.07;;;7.22;;
54921;SDS011;40824;45.116;21.296;2023-07-02T02:38:36;11.57;;;6.93;;
54921;SDS011;40824;45.116;21.296;2023-07-02T02:41:05;9.77;;;7.57;;
54921;SDS011;40824;45.116;21.296;2023-07-02T02:43:34;11.55;;;6.93;;
54921;SDS011;40824;45.116;21.296;2023-07-02T02:46:00;11.38;;;7.43;;
54921;SDS011;40824;45.116;21.296;2023-07-02T02:48:26;11.30;;;7.05;;
54921;SDS011;40824;45.116;21.296;2023-07-02T02:50:52;12.77;;;7.65;;
54921;SDS011;40824;45.116;21.296;2023-07-02T02:53:20;9.70;;;6.97;;
54921;SDS011;40824;45.116;21.296;2023-07-02T02:55:47;9.23;;;6.22;;
54921;SDS011;40824;45.116;21.296;2023-07-02T02:58:13;11.80;;;6.75;;
54921;SDS011;40824;45.116;21.296;2023-07-02T03:00:39;11.70;;;7.03;;
54921;SDS011;40824;45.116;21.296;2023-07-02T03:03:08;8.90;;;6.47;;
54921;SDS011;40824;45.116;21.296;2023-07-02T03:05:35;12.00;;;6.68;;
54921;SDS011;40824;45.116;21.296;2023-07-02T03:08:02;12.35;;;6.80;;
54921;SDS011;40824;45.116;21.296;2023-07-02T03:10:29;7.95;;;5.75;;
54921;SDS011;40824;45.116;21.296;2023-07-02T03:12:55;9.88;;;7.10;;
54921;SDS011;40824;45.116;21.296;2023-07-02T03:15:21;10.90;;;7.10;;
54921;SDS011;40824;45.116;21.296;2023-07-02T03:17:47;9.15;;;6.75;;
54921;SDS011;40824;45.116;21.296;2023-07-02T03:20:13;10.05;;;6.55;;
54921;SDS011;40824;45.116;21.296;2023-07-02T03:22:40;10.20;;;6.25;;
54921;SDS011;40824;45.116;21.296;2023-07-02T03:25:06;10.88;;;6.68;;
54921;SDS011;40824;45.116;21.296;2023-07-02T03:27:35;10.00;;;6.90;;
54921;SDS011;40824;45.116;21.296;2023-07-02T03:30:02;14.48;;;7.53;;
54921;SDS011;40824;45.116;21.296;2023-07-02T03:32:28;10.68;;;6.65;;
54921;SDS011;40824;45.116;21.296;2023-07-02T03:34:55;10.90;;;6.38;;
54921;SDS011;40824;45.116;21.296;2023-07-02T03:37:21;10.73;;;7.15;;
54921;SDS011;40824;45.116;21.296;2023-07-02T03:39:48;12.48;;;7.40;;
54921;SDS011;40824;45.116;21.296;2023-07-02T03:42:14;11.48;;;7.15;;
54921;SDS011;40824;45.116;21.296;2023-07-02T03:44:40;17.38;;;8.02;;
54921;SDS011;40824;45.116;21.296;2023-07-02T03:47:06;11.60;;;6.78;;
54921;SDS011;40824;45.116;21.296;2023-07-02T03:49:37;13.95;;;7.18;;
54921;SDS011;40824;45.116;21.296;2023-07-02T03:52:04;9.88;;;6.60;;
54921;SDS011;40824;45.116;21.296;2023-07-02T03:54:30;10.43;;;6.35;;
54921;SDS011;40824;45.116;21.296;2023-07-02T03:56:58;12.00;;;6.93;;
54921;SDS011;40824;45.116;21.296;2023-07-02T03:59:24;11.90;;;6.78;;
54921;SDS011;40824;45.116;21.296;2023-07-02T04:01:51;11.35;;;7.32;;
54921;SDS011;40824;45.116;21.296;2023-07-02T04:04:21;14.15;;;6.18;;
54921;SDS011;40824;45.116;21.296;2023-07-02T04:06:49;9.82;;;6.47;;
54921;SDS011;40824;45.116;21.296;2023-07-02T04:09:16;14.15;;;7.30;;
54921;SDS011;40824;45.116;21.296;2023-07-02T04:11:43;11.82;;;6.57;;
54921;SDS011;40824;45.116;21.296;2023-07-02T04:14:12;10.05;;;6.55;;
54921;SDS011;40824;45.116;21.296;2023-07-02T04:16:43;11.20;;;7.20;;
54921;SDS011;40824;45.116;21.296;2023-07-02T04:19:10;11.02;;;7.45;;
54921;SDS011;40824;45.116;21.296;2023-07-02T04:21:46;12.93;;;7.35;;
54921;SDS011;40824;45.116;21.296;2023-07-02T04:24:12;11.38;;;7.45;;
54921;SDS011;40824;45.116;21.296;2023-07-02T04:26:38;10.55;;;7.55;;
54921;SDS011;40824;45.116;21.296;2023-07-02T04:29:09;10.38;;;7.32;;
54921;SDS011;40824;45.116;21.296;2023-07-02T04:31:36;12.77;;;7.38;;
54921;SDS011;40824;45.116;21.296;2023-07-02T04:34:02;14.52;;;7.50;;
54921;SDS011;40824;45.116;21.296;2023-07-02T04:36:28;16.33;;;7.15;;
54921;SDS011;40824;45.116;21.296;2023-07-02T04:38:57;11.10;;;7.50;;
54921;SDS011;40824;45.116;21.296;2023-07-02T04:41:23;10.48;;;7.10;;
54921;SDS011;40824;45.116;21.296;2023-07-02T04:43:49;9.98;;;7.50;;
54921;SDS011;40824;45.116;21.296;2023-07-02T04:46:15;11.13;;;7.30;;
54921;SDS011;40824;45.116;21.296;2023-07-02T04:48:42;19.05;;;7.80;;
54921;SDS011;40824;45.116;21.296;2023-07-02T04:51:08;14.80;;;7.50;;
54921;SDS011;40824;45.116;21.296;2023-07-02T04:53:35;15.80;;;7.55;;
54921;SDS011;40824;45.116;21.296;2023-07-02T04:56:02;15.05;;;8.65;;
54921;SDS011;40824;45.116;21.296;2023-07-02T04:58:28;11.05;;;6.78;;
54921;SDS011;40824;45.116;21.296;2023-07-02T05:00:55;10.85;;;7.55;;
54921;SDS011;40824;45.116;21.296;2023-07-02T05:03:21;11.38;;;7.80;;
54921;SDS011;40824;45.116;21.296;2023-07-02T05:05:47;11.57;;;7.35;;
54921;SDS011;40824;45.116;21.296;2023-07-02T05:08:13;14.90;;;8.32;;
54921;SDS011;40824;45.116;21.296;2023-07-02T05:10:39;14.40;;;8.35;;
54921;SDS011;40824;45.116;21.296;2023-07-02T05:13:06;10.38;;;7.75;;
54921;SDS011;40824;45.116;21.296;2023-07-02T05:15:35;13.02;;;8.23;;
54921;SDS011;40824;45.116;21.296;2023-07-02T05:18:01;13.48;;;7.78;;
54921;SDS011;40824;45.116;21.296;2023-07-02T05:20:27;15.82;;;8.30;;
54921;SDS011;40824;45.116;21.296;2023-07-02T05:22:53;12.30;;;7.65;;
54921;SDS011;40824;45.116;21.296;2023-07-02T05:25:19;14.93;;;8.73;;
54921;SDS011;40824;45.116;21.296;2023-07-02T05:27:45;13.32;;;8.85;;
54921;SDS011;40824;45.116;21.296;2023-07-02T05:30:13;11.73;;;8.30;;
54921;SDS011;40824;45.116;21.296;2023-07-02T05:32:40;13.45;;;8.73;;
54921;SDS011;40824;45.116;21.296;2023-07-02T05:35:06;13.18;;;8.50;;
54921;SDS011;40824;45.116;21.296;2023-07-02T05:37:32;13.88;;;8.13;;
54921;SDS011;40824;45.116;21.296;2023-07-02T05:39:58;12.52;;;8.68;;
54921;SDS011;40824;45.116;21.296;2023-07-02T05:42:24;15.38;;;9.00;;
54921;SDS011;40824;45.116;21.296;2023-07-02T05:44:50;22.13;;;10.15;;
54921;SDS011;40824;45.116;21.296;2023-07-02T05:47:16;14.68;;;8.75;;
54921;SDS011;40824;45.116;21.296;2023-07-02T05:49:42;12.77;;;9.00;;
54921;SDS011;40824;45.116;21.296;2023-07-02T05:52:08;12.05;;;8.50;;
54921;SDS011;40824;45.116;21.296;2023-07-02T05:54:34;13.20;;;8.65;;
54921;SDS011;40824;45.116;21.296;2023-07-02T05:57:00;14.32;;;8.85;;
54921;SDS011;40824;45.116;21.296;2023-07-02T05:59:26;14.48;;;8.43;;
54921;SDS011;40824;45.116;21.296;2023-07-02T06:01:52;16.42;;;9.60;;
54921;SDS011;40824;45.116;21.296;2023-07-02T06:04:18;16.33;;;10.23;;
54921;SDS011;40824;45.116;21.296;2023-07-02T06:06:44;15.88;;;9.45;;
54921;SDS011;40824;45.116;21.296;2023-07-02T06:09:10;19.08;;;9.60;;
54921;SDS011;40824;45.116;21.296;2023-07-02T06:11:37;19.77;;;10.75;;
54921;SDS011;40824;45.116;21.296;2023-07-02T06:14:03;16.30;;;10.45;;
54921;SDS011;40824;45.116;21.296;2023-07-02T06:16:29;15.95;;;10.85;;
54921;SDS011;40824;45.116;21.296;2023-07-02T06:18:55;15.57;;;10.35;;
54921;SDS011;40824;45.116;21.296;2023-07-02T06:21:21;15.88;;;10.80;;
54921;SDS011;40824;45.116;21.296;2023-07-02T06:23:48;16.67;;;11.15;;
54921;SDS011;40824;45.116;21.296;2023-07-02T06:26:14;14.50;;;9.65;;
54921;SDS011;40824;45.116;21.296;2023-07-02T06:28:40;15.30;;;10.88;;
54921;SDS011;40824;45.116;21.296;2023-07-02T06:31:06;15.88;;;9.95;;
54921;SDS011;40824;45.116;21.296;2023-07-02T06:33:32;14.30;;;10.82;;
54921;SDS011;40824;45.116;21.296;2023-07-02T06:35:58;16.35;;;10.82;;
54921;SDS011;40824;45.116;21.296;2023-07-02T06:38:27;16.35;;;10.52;;
54921;SDS011;40824;45.116;21.296;2023-07-02T06:40:53;16.02;;;10.73;;
54921;SDS011;40824;45.116;21.296;2023-07-02T06:43:19;14.18;;;9.88;;
54921;SDS011;40824;45.116;21.296;2023-07-02T06:45:45;19.70;;;10.05;;
54921;SDS011;40824;45.116;21.296;2023-07-02T06:48:11;17.00;;;10.88;;
54921;SDS011;40824;45.116;21.296;2023-07-02T06:50:42;17.70;;;11.10;;
54921;SDS011;40824;45.116;21.296;2023-07-02T06:53:09;15.80;;;10.68;;
54921;SDS011;40824;45.116;21.296;2023-07-02T06:55:36;16.65;;;10.73;;
54921;SDS011;40824;45.116;21.296;2023-07-02T06:58:05;16.00;;;10.75;;
54921;SDS011;40824;45.116;21.296;2023-07-02T07:00:34;16.27;;;10.07;;
54921;SDS011;40824;45.116;21.296;2023-07-02T07:03:02;17.45;;;11.07;;
54921;SDS011;40824;45.116;21.296;2023-07-02T07:05:30;14.43;;;10.50;;
54921;SDS011;40824;45.116;21.296;2023-07-02T07:08:01;17.70;;;10.85;;
54921;SDS011;40824;45.116;21.296;2023-07-02T07:10:28;16.08;;;10.63;;
54921;SDS011;40824;45.116;21.296;2023-07-02T07:12:59;15.57;;;10.02;;
54921;SDS011;40824;45.116;21.296;2023-07-02T07:15:25;13.93;;;10.77;;
54921;SDS011;40824;45.116;21.296;2023-07-02T07:17:51;14.32;;;10.82;;
54921;SDS011;40824;45.116;21.296;2023-07-02T07:20:17;14.27;;;10.10;;
54921;SDS011;40824;45.116;21.296;2023-07-02T07:22:43;15.60;;;10.25;;
54921;SDS011;40824;45.116;21.296;2023-07-02T07:25:09;13.90;;;10.90;;
54921;SDS011;40824;45.116;21.296;2023-07-02T07:27:36;15.55;;;11.05;;
54921;SDS011;40824;45.116;21.296;2023-07-02T07:30:03;10.73;;;8.68;;
54921;SDS011;40824;45.116;21.296;2023-07-02T07:32:29;15.52;;;11.02;;
54921;SDS011;40824;45.116;21.296;2023-07-02T07:34:55;14.25;;;11.10;;
54921;SDS011;40824;45.116;21.296;2023-07-02T07:37:21;13.52;;;11.15;;
54921;SDS011;40824;45.116;21.296;2023-07-02T07:39:47;13.85;;;10.35;;
54921;SDS011;40824;45.116;21.296;2023-07-02T07:42:14;18.88;;;10.00;;
54921;SDS011;40824;45.116;21.296;2023-07-02T07:44:42;15.88;;;11.52;;
54921;SDS011;40824;45.116;21.296;2023-07-02T07:47:08;14.77;;;11.05;;
54921;SDS011;40824;45.116;21.296;2023-07-02T07:49:34;13.07;;;8.35;;
54921;SDS011;40824;45.116;21.296;2023-07-02T07:52:00;14.05;;;10.75;;
54921;SDS011;40824;45.116;21.296;2023-07-02T07:54:28;15.32;;;9.88;;
54921;SDS011;40824;45.116;21.296;2023-07-02T07:56:54;12.80;;;10.05;;
54921;SDS011;40824;45.116;21.296;2023-07-02T07:59:20;13.32;;;9.23;;
54921;SDS011;40824;45.116;21.296;2023-07-02T08:01:47;13.57;;;8.55;;
54921;SDS011;40824;45.116;21.296;2023-07-02T08:04:13;13.18;;;7.85;;
54921;SDS011;40824;45.116;21.296;2023-07-02T08:06:43;15.20;;;10.52;;
54921;SDS011;40824;45.116;21.296;2023-07-02T08:09:09;12.80;;;9.20;;
54921;SDS011;40824;45.116;21.296;2023-07-02T08:11:36;11.20;;;9.32;;
54921;SDS011;40824;45.116;21.296;2023-07-02T08:14:03;12.63;;;8.52;;
54921;SDS011;40824;45.116;21.296;2023-07-02T08:16:29;12.23;;;9.32;;
54921;SDS011;40824;45.116;21.296;2023-07-02T08:18:55;11.13;;;8.32;;
54921;SDS011;40824;45.116;21.296;2023-07-02T08:21:21;11.25;;;8.98;;
54921;SDS011;40824;45.116;21.296;2023-07-02T08:23:47;10.90;;;8.43;;
54921;SDS011;40824;45.116;21.296;2023-07-02T08:26:13;11.38;;;8.68;;
54921;SDS011;40824;45.116;21.296;2023-07-02T08:28:40;10.90;;;7.85;;
54921;SDS011;40824;45.116;21.296;2023-07-02T08:31:06;12.20;;;8.52;;
54921;SDS011;40824;45.116;21.296;2023-07-02T08:33:32;13.25;;;8.40;;
54921;SDS011;40824;45.116;21.296;2023-07-02T08:35:58;9.90;;;7.45;;
54921;SDS011;40824;45.116;21.296;2023-07-02T08:38:26;8.82;;;7.65;;
54921;SDS011;40824;45.116;21.296;2023-07-02T08:40:52;10.07;;;7.90;;
54921;SDS011;40824;45.116;21.296;2023-07-02T08:43:19;9.45;;;7.60;;
54921;SDS011;40824;45.116;21.296;2023-07-02T08:45:45;11.07;;;7.60;;
54921;SDS011;40824;45.116;21.296;2023-07-02T08:48:16;10.85;;;8.23;;
54921;SDS011;40824;45.116;21.296;2023-07-02T08:50:47;12.43;;;8.25;;
54921;SDS011;40824;45.116;21.296;2023-07-02T08:53:14;10.80;;;7.65;;
54921;SDS011;40824;45.116;21.296;2023-07-02T08:55:40;11.52;;;7.63;;
54921;SDS011;40824;45.116;21.296;2023-07-02T08:58:06;15.23;;;7.88;;
54921;SDS011;40824;45.116;21.296;2023-07-02T09:00:32;10.02;;;7.25;;
54921;SDS011;40824;45.116;21.296;2023-07-02T09:03:14;10.52;;;7.13;;
54921;SDS011;40824;45.116;21.296;2023-07-02T09:06:16;10.82;;;7.28;;
54921;SDS011;40824;45.116;21.296;2023-07-02T09:08:33;12.07;;;7.67;;
54921;SDS011;40824;45.116;21.296;2023-07-02T09:11:09;9.50;;;6.88;;
54921;SDS011;40824;45.116;21.296;2023-07-02T09:18:59;10.25;;;7.38;;
54921;SDS011;40824;45.116;21.296;2023-07-02T09:21:25;10.75;;;7.32;;
54921;SDS011;40824;45.116;21.296;2023-07-02T09:23:52;8.07;;;7.22;;
54921;SDS011;40824;45.116;21.296;2023-07-02T09:26:21;11.88;;;7.72;;
54921;SDS011;40824;45.116;21.296;2023-07-02T09:28:48;14.18;;;7.95;;
54921;SDS011;40824;45.116;21.296;2023-07-02T09:31:14;11.00;;;7.88;;
54921;SDS011;40824;45.116;21.296;2023-07-02T09:33:40;12.68;;;7.78;;
54921;SDS011;40824;45.116;21.296;2023-07-02T09:36:06;8.98;;;7.28;;
54921;SDS011;40824;45.116;21.296;2023-07-02T09:38:32;10.38;;;6.80;;
54921;SDS011;40824;45.116;21.296;2023-07-02T09:40:59;9.73;;;6.63;;
54921;SDS011;40824;45.116;21.296;2023-07-02T09:43:25;9.02;;;5.93;;
54921;SDS011;40824;45.116;21.296;2023-07-02T09:45:52;8.70;;;6.45;;
54921;SDS011;40824;45.116;21.296;2023-07-02T09:48:18;9.75;;;6.25;;
54921;SDS011;40824;45.116;21.296;2023-07-02T09:50:47;6.90;;;5.53;;
54921;SDS011;40824;45.116;21.296;2023-07-02T09:53:14;8.63;;;6.30;;
54921;SDS011;40824;45.116;21.296;2023-07-02T09:55:44;11.38;;;6.45;;
54921;SDS011;40824;45.116;21.296;2023-07-02T09:58:10;10.63;;;6.85;;
54921;SDS011;40824;45.116;21.296;2023-07-02T10:00:37;9.55;;;6.30;;
54921;SDS011;40824;45.116;21.296;2023-07-02T10:03:03;8.40;;;5.70;;
54921;SDS011;40824;45.116;21.296;2023-07-02T10:05:30;7.97;;;6.00;;
54921;SDS011;40824;45.116;21.296;2023-07-02T10:07:57;8.38;;;6.25;;
54921;SDS011;40824;45.116;21.296;2023-07-02T10:10:27;8.23;;;6.95;;
54921;SDS011;40824;45.116;21.296;2023-07-02T10:12:53;9.02;;;5.93;;
54921;SDS011;40824;45.116;21.296;2023-07-02T10:15:28;11.60;;;7.13;;
54921;SDS011;40824;45.116;21.296;2023-07-02T10:17:59;9.30;;;6.80;;
54921;SDS011;40824;45.116;21.296;2023-07-02T10:20:41;9.20;;;6.68;;
54921;SDS011;40824;45.116;21.296;2023-07-02T10:23:08;7.80;;;6.80;;
54921;SDS011;40824;45.116;21.296;2023-07-02T10:25:36;7.55;;;6.70;;
54921;SDS011;40824;45.116;21.296;2023-07-02T10:28:19;10.07;;;7.22;;
54921;SDS011;40824;45.116;21.296;2023-07-02T10:30:47;14.70;;;9.30;;
54921;SDS011;40824;45.116;21.296;2023-07-02T10:33:14;10.30;;;8.43;;
54921;SDS011;40824;45.116;21.296;2023-07-02T10:35:40;17.58;;;8.32;;
54921;SDS011;40824;45.116;21.296;2023-07-02T10:38:07;11.80;;;8.38;;
54921;SDS011;40824;45.116;21.296;2023-07-02T10:40:33;8.40;;;6.85;;
54921;SDS011;40824;45.116;21.296;2023-07-02T10:43:00;10.30;;;8.82;;
54921;SDS011;40824;45.116;21.296;2023-07-02T10:45:32;9.02;;;7.20;;
54921;SDS011;40824;45.116;21.296;2023-07-02T10:47:58;13.63;;;9.65;;
54921;SDS011;40824;45.116;21.296;2023-07-02T10:50:26;9.40;;;7.75;;
54921;SDS011;40824;45.116;21.296;2023-07-02T10:52:52;8.40;;;7.30;;
54921;SDS011;40824;45.116;21.296;2023-07-02T10:55:22;8.65;;;7.75;;
54921;SDS011;40824;45.116;21.296;2023-07-02T10:58:02;9.82;;;6.70;;
54921;SDS011;40824;45.116;21.296;2023-07-02T11:00:29;10.82;;;6.93;;
54921;SDS011;40824;45.116;21.296;2023-07-02T11:02:56;9.48;;;7.03;;
54921;SDS011;40824;45.116;21.296;2023-07-02T11:05:22;15.70;;;7.82;;
54921;SDS011;40824;45.116;21.296;2023-07-02T11:07:48;13.13;;;6.60;;
54921;SDS011;40824;45.116;21.296;2023-07-02T11:10:21;8.75;;;7.30;;
54921;SDS011;40824;45.116;21.296;2023-07-02T11:12:48;13.30;;;7.15;;
54921;SDS011;40824;45.116;21.296;2023-07-02T11:15:15;11.75;;;6.25;;
54921;SDS011;40824;45.116;21.296;2023-07-02T11:17:42;9.52;;;6.38;;
54921;SDS011;40824;45.116;21.296;2023-07-02T11:20:12;8.10;;;5.95;;
54921;SDS011;40824;45.116;21.296;2023-07-02T11:22:39;6.82;;;5.75;;
54921;SDS011;40824;45.116;21.296;2023-07-02T11:25:09;9.35;;;6.75;;
54921;SDS011;40824;45.116;21.296;2023-07-02T11:27:38;6.88;;;6.18;;
54921;SDS011;40824;45.116;21.296;2023-07-02T11:30:05;8.13;;;6.53;;
54921;SDS011;40824;45.116;21.296;2023-07-02T11:32:31;7.40;;;6.30;;
54921;SDS011;40824;45.116;21.296;2023-07-02T11:34:57;7.97;;;5.65;;
54921;SDS011;40824;45.116;21.296;2023-07-02T11:37:23;8.13;;;5.82;;
54921;SDS011;40824;45.116;21.296;2023-07-02T11:39:49;7.82;;;6.10;;
54921;SDS011;40824;45.116;21.296;2023-07-02T11:42:15;8.65;;;5.32;;
54921;SDS011;40824;45.116;21.296;2023-07-02T11:44:42;6.63;;;5.18;;
54921;SDS011;40824;45.116;21.296;2023-07-02T11:47:08;8.70;;;5.45;;
54921;SDS011;40824;45.116;21.296;2023-07-02T11:49:34;8.00;;;5.53;;
54921;SDS011;40824;45.116;21.296;2023-07-02T11:52:00;6.82;;;5.90;;
54921;SDS011;40824;45.116;21.296;2023-07-02T11:54:28;9.13;;;5.75;;
54921;SDS011;40824;45.116;21.296;2023-07-02T11:56:56;6.63;;;5.22;;
54921;SDS011;40824;45.116;21.296;2023-07-02T11:59:22;6.18;;;5.15;;
54921;SDS011;40824;45.116;21.296;2023-07-02T12:01:48;9.20;;;5.45;;
54921;SDS011;40824;45.116;21.296;2023-07-02T12:04:14;7.07;;;5.40;;
54921;SDS011;40824;45.116;21.296;2023-07-02T12:06:41;7.53;;;5.57;;
54921;SDS011;40824;45.116;21.296;2023-07-02T12:09:07;7.63;;;5.90;;
54921;SDS011;40824;45.116;21.296;2023-07-02T12:11:34;7.47;;;6.20;;
54921;SDS011;40824;45.116;21.296;2023-07-02T12:14:03;7.10;;;5.78;;
54921;SDS011;40824;45.116;21.296;2023-07-02T12:16:30;7.18;;;5.85;;
54921;SDS011;40824;45.116;21.296;2023-07-02T12:18:56;7.38;;;6.07;;
54921;SDS011;40824;45.116;21.296;2023-07-02T12:21:24;8.90;;;6.78;;
54921;SDS011;40824;45.116;21.296;2023-07-02T12:23:50;9.02;;;7.28;;
54921;SDS011;40824;45.116;21.296;2023-07-02T12:26:19;7.60;;;6.38;;
54921;SDS011;40824;45.116;21.296;2023-07-02T12:28:45;9.88;;;6.38;;
54921;SDS011;40824;45.116;21.296;2023-07-02T12:31:11;9.77;;;6.68;;
54921;SDS011;40824;45.116;21.296;2023-07-02T12:33:38;9.15;;;7.25;;
54921;SDS011;40824;45.116;21.296;2023-07-02T12:36:06;7.50;;;6.70;;
54921;SDS011;40824;45.116;21.296;2023-07-02T12:38:33;9.30;;;6.63;;
54921;SDS011;40824;45.116;21.296;2023-07-02T12:40:59;7.85;;;7.05;;
54921;SDS011;40824;45.116;21.296;2023-07-02T12:43:25;7.10;;;6.32;;
54921;SDS011;40824;45.116;21.296;2023-07-02T12:45:54;7.90;;;6.82;;
54921;SDS011;40824;45.116;21.296;2023-07-02T12:48:21;8.75;;;6.45;;
54921;SDS011;40824;45.116;21.296;2023-07-02T12:50:56;7.78;;;6.50;;
54921;SDS011;40824;45.116;21.296;2023-07-02T12:53:23;8.13;;;7.22;;
54921;SDS011;40824;45.116;21.296;2023-07-02T12:55:51;8.10;;;6.78;;
54921;SDS011;40824;45.116;21.296;2023-07-02T12:58:17;9.93;;;7.35;;
54921;SDS011;40824;45.116;21.296;2023-07-02T13:00:47;7.53;;;6.65;;
54921;SDS011;40824;45.116;21.296;2023-07-02T13:03:16;10.23;;;7.00;;
54921;SDS011;40824;45.116;21.296;2023-07-02T13:05:50;8.57;;;6.75;;
54921;SDS011;40824;45.116;21.296;2023-07-02T13:08:16;9.50;;;6.95;;
54921;SDS011;40824;45.116;21.296;2023-07-02T13:10:43;8.65;;;6.80;;
54921;SDS011;40824;45.116;21.296;2023-07-02T13:13:12;9.07;;;7.75;;
54921;SDS011;40824;45.116;21.296;2023-07-02T13:15:38;9.15;;;7.50;;
54921;SDS011;40824;45.116;21.296;2023-07-02T13:18:04;8.50;;;7.25;;
54921;SDS011;40824;45.116;21.296;2023-07-02T13:20:33;9.55;;;6.82;;
54921;SDS011;40824;45.116;21.296;2023-07-02T13:22:59;9.55;;;7.00;;
54921;SDS011;40824;45.116;21.296;2023-07-02T13:25:25;7.38;;;6.30;;
54921;SDS011;40824;45.116;21.296;2023-07-02T13:27:51;10.23;;;7.05;;
54921;SDS011;40824;45.116;21.296;2023-07-02T13:30:17;7.82;;;7.00;;
54921;SDS011;40824;45.116;21.296;2023-07-02T13:32:43;10.63;;;6.80;;
54921;SDS011;40824;45.116;21.296;2023-07-02T13:35:09;8.05;;;6.85;;
54921;SDS011;40824;45.116;21.296;2023-07-02T13:37:35;8.73;;;7.05;;
54921;SDS011;40824;45.116;21.296;2023-07-02T13:40:02;10.32;;;7.40;;
54921;SDS011;40824;45.116;21.296;2023-07-02T13:42:29;7.15;;;6.18;;
54921;SDS011;40824;45.116;21.296;2023-07-02T13:44:56;6.82;;;5.40;;
54921;SDS011;40824;45.116;21.296;2023-07-02T13:47:22;8.93;;;6.97;;
54921;SDS011;40824;45.116;21.296;2023-07-02T13:49:48;8.73;;;6.00;;
54921;SDS011;40824;45.116;21.296;2023-07-02T13:52:14;7.90;;;5.95;;
54921;SDS011;40824;45.116;21.296;2023-07-02T13:54:40;10.90;;;7.47;;
54921;SDS011;40824;45.116;21.296;2023-07-02T13:57:08;8.85;;;7.40;;
54921;SDS011;40824;45.116;21.296;2023-07-02T13:59:34;10.18;;;7.80;;
54921;SDS011;40824;45.116;21.296;2023-07-02T14:02:00;8.38;;;7.07;;
54921;SDS011;40824;45.116;21.296;2023-07-02T14:04:26;15.57;;;8.45;;
54921;SDS011;40824;45.116;21.296;2023-07-02T14:06:52;9.55;;;7.45;;
54921;SDS011;40824;45.116;21.296;2023-07-02T14:09:19;9.20;;;6.90;;
54921;SDS011;40824;45.116;21.296;2023-07-02T14:11:46;8.70;;;7.80;;
54921;SDS011;40824;45.116;21.296;2023-07-02T14:14:12;12.65;;;7.95;;
54921;SDS011;40824;45.116;21.296;2023-07-02T14:16:38;11.75;;;8.55;;
54921;SDS011;40824;45.116;21.296;2023-07-02T14:19:04;10.88;;;7.95;;
54921;SDS011;40824;45.116;21.296;2023-07-02T14:21:30;16.02;;;8.40;;
54921;SDS011;40824;45.116;21.296;2023-07-02T14:23:57;13.35;;;8.50;;
54921;SDS011;40824;45.116;21.296;2023-07-02T14:26:23;14.32;;;8.30;;
54921;SDS011;40824;45.116;21.296;2023-07-02T14:28:49;12.10;;;8.45;;
54921;SDS011;40824;45.116;21.296;2023-07-02T14:31:15;12.25;;;8.88;;